createdAt,value
2022-11-16T00:02:10.086Z,8.73
2022-11-16T00:04:37.892Z,6.93
2022-11-16T00:07:06.215Z,8.20
2022-11-16T00:09:34.722Z,7.70
2022-11-16T00:12:04.859Z,9.60
2022-11-16T00:14:34.922Z,7.07
2022-11-16T00:17:03.219Z,10.10
2022-11-16T00:19:32.503Z,8.63
2022-11-16T00:22:00.293Z,8.25
2022-11-16T00:24:28.154Z,5.60
2022-11-16T00:26:56.436Z,7.50
2022-11-16T00:29:26.189Z,6.72
2022-11-16T00:31:54.779Z,8.20
2022-11-16T00:34:23.351Z,14.17
2022-11-16T00:36:52.634Z,8.50
2022-11-16T00:39:20.909Z,7.33
2022-11-16T00:41:49.666Z,7.23
2022-11-16T00:44:17.952Z,7.13
2022-11-16T00:46:45.954Z,7.67
2022-11-16T00:49:13.712Z,7.37
2022-11-16T00:51:41.439Z,6.60
2022-11-16T00:54:10.703Z,5.30
2022-11-16T00:56:38.886Z,6.47
2022-11-16T00:59:07.043Z,8.57
2022-11-16T01:01:37.931Z,6.50
2022-11-16T01:04:06.021Z,5.57
2022-11-16T01:06:33.713Z,9.60
2022-11-16T01:09:01.461Z,7.63
2022-11-16T01:11:48.178Z,7.83
2022-11-16T01:14:16.450Z,9.10
2022-11-16T01:16:44.182Z,6.65
2022-11-16T01:19:11.893Z,9.60
2022-11-16T01:21:39.561Z,7.77
2022-11-16T01:24:07.726Z,5.35
2022-11-16T01:26:36.770Z,5.33
2022-11-16T01:29:04.938Z,5.67
2022-11-16T01:31:32.636Z,7.50
2022-11-16T01:34:00.313Z,6.03
2022-11-16T01:36:28.243Z,6.35
2022-11-16T01:38:56.111Z,7.93
2022-11-16T01:41:26.883Z,5.78
2022-11-16T01:43:58.434Z,7.87
2022-11-16T01:46:27.108Z,7.50
2022-11-16T01:49:01.549Z,6.93
2022-11-16T01:51:29.676Z,5.27
2022-11-16T01:53:58.276Z,8.07
2022-11-16T01:56:26.741Z,6.20
2022-11-16T01:58:56.171Z,7.70
2022-11-16T02:01:24.115Z,5.57
2022-11-16T02:03:51.883Z,7.97
2022-11-16T02:06:36.633Z,4.60
2022-11-16T02:09:40.483Z,7.27
2022-11-16T02:12:30.290Z,5.73
2022-11-16T02:15:09.086Z,6.10
2022-11-16T02:17:46.347Z,10.30
2022-11-16T02:20:43.287Z,3.53
2022-11-16T02:23:36.293Z,8.17
2022-11-16T02:26:19.949Z,6.20
2022-11-16T02:28:57.211Z,8.33
2022-11-16T02:31:32.006Z,7.30
2022-11-16T02:34:01.829Z,7.37
2022-11-16T02:36:29.507Z,6.73
2022-11-16T02:39:02.135Z,9.33
2022-11-16T02:41:34.914Z,7.40
2022-11-16T02:44:07.270Z,7.78
2022-11-16T02:46:39.662Z,10.70
2022-11-16T02:49:12.857Z,9.93
2022-11-16T02:51:41.702Z,6.63
2022-11-16T02:54:13.027Z,5.13
2022-11-16T02:56:53.158Z,5.10
2022-11-16T02:59:22.239Z,5.43
2022-11-16T03:01:58.604Z,5.50
2022-11-16T03:04:31.550Z,5.23
2022-11-16T03:07:03.181Z,4.57
2022-11-16T03:09:33.948Z,8.57
2022-11-16T03:12:06.147Z,5.00
2022-11-16T03:14:37.744Z,5.80
2022-11-16T03:17:11.945Z,7.63
2022-11-16T03:19:42.694Z,4.90
2022-11-16T03:22:15.386Z,4.33
2022-11-16T03:24:43.507Z,5.23
2022-11-16T03:27:21.703Z,3.57
2022-11-16T03:29:59.310Z,5.83
2022-11-16T03:32:34.660Z,6.30
2022-11-16T03:35:07.328Z,6.80
2022-11-16T03:37:36.671Z,4.37
2022-11-16T03:40:06.021Z,6.03
2022-11-16T03:42:34.809Z,3.77
2022-11-16T03:45:16.342Z,3.97
2022-11-16T03:47:46.230Z,5.87
2022-11-16T03:50:14.142Z,3.93
2022-11-16T03:52:42.382Z,5.73
2022-11-16T03:55:10.585Z,3.87
2022-11-16T03:57:38.288Z,5.60
2022-11-16T04:00:07.385Z,5.57
2022-11-16T04:02:35.022Z,4.77
2022-11-16T04:05:21.729Z,4.83
2022-11-16T04:08:07.106Z,4.60
2022-11-16T04:10:52.893Z,4.30
2022-11-16T04:13:46.789Z,4.77
2022-11-16T04:16:32.191Z,5.27
2022-11-16T04:19:17.535Z,10.87
2022-11-16T04:22:08.953Z,5.73
2022-11-16T04:24:39.263Z,4.60
2022-11-16T04:27:28.623Z,6.63
2022-11-16T04:29:59.135Z,6.93
2022-11-16T04:32:44.613Z,15.70
2022-11-16T04:35:44.476Z,6.33
2022-11-16T04:38:13.503Z,6.80
2022-11-16T04:40:41.218Z,7.07
2022-11-16T04:43:07.906Z,6.00
2022-11-16T04:45:53.543Z,4.80
2022-11-16T04:48:21.740Z,8.20
2022-11-16T04:50:49.761Z,5.90
2022-11-16T04:53:20.333Z,4.47
2022-11-16T04:55:50.341Z,7.60
2022-11-16T04:58:18.198Z,5.50
2022-11-16T05:00:45.889Z,5.18
2022-11-16T05:03:13.581Z,4.65
2022-11-16T05:05:41.328Z,3.77
2022-11-16T05:08:09.363Z,6.87
2022-11-16T05:10:38.545Z,3.90
2022-11-16T05:13:06.264Z,3.10
2022-11-16T05:15:33.949Z,3.97
2022-11-16T05:18:01.647Z,4.33
2022-11-16T05:20:47.679Z,6.57
2022-11-16T05:23:29.949Z,5.93
2022-11-16T05:25:58.996Z,6.80
2022-11-16T05:28:26.723Z,4.60
2022-11-16T05:30:54.413Z,9.77
2022-11-16T05:33:22.083Z,4.13
2022-11-16T05:35:51.195Z,3.80
2022-11-16T05:38:19.037Z,3.43
2022-11-16T05:40:46.722Z,3.90
2022-11-16T05:43:15.764Z,4.03
2022-11-16T05:45:43.904Z,6.77
2022-11-16T05:48:11.602Z,10.40
2022-11-16T05:50:42.762Z,5.90
2022-11-16T05:53:11.044Z,4.10
2022-11-16T05:55:38.769Z,4.10
2022-11-16T05:58:06.584Z,6.60
2022-11-16T06:00:35.734Z,4.83
2022-11-16T06:03:03.474Z,6.00
2022-11-16T06:05:34.091Z,4.60
2022-11-16T06:08:04.117Z,9.43
2022-11-16T06:10:32.166Z,5.53
2022-11-16T06:12:59.922Z,6.43
2022-11-16T06:15:27.631Z,4.67
2022-11-16T06:17:56.778Z,5.30
2022-11-16T06:20:24.546Z,6.20
2022-11-16T06:22:52.293Z,7.73
2022-11-16T06:25:19.964Z,5.50
2022-11-16T06:27:47.807Z,4.60
2022-11-16T06:30:16.241Z,8.33
2022-11-16T06:32:44.611Z,5.13
2022-11-16T06:35:13.655Z,4.10
2022-11-16T06:37:41.461Z,6.27
2022-11-16T06:40:11.121Z,6.00
2022-11-16T06:42:38.909Z,8.33
2022-11-16T06:45:07.352Z,6.00
2022-11-16T06:47:36.004Z,4.40
2022-11-16T06:50:03.952Z,6.00
2022-11-16T06:52:33.022Z,4.57
2022-11-16T06:55:00.880Z,4.53
2022-11-16T06:57:28.656Z,7.37
2022-11-16T06:59:56.471Z,3.43
2022-11-16T07:02:24.203Z,5.63
2022-11-16T07:04:51.965Z,5.60
2022-11-16T07:07:19.772Z,5.10
2022-11-16T07:09:48.958Z,3.47
2022-11-16T07:12:16.839Z,5.50
2022-11-16T07:14:45.394Z,6.60
2022-11-16T07:17:13.546Z,3.77
2022-11-16T07:19:41.319Z,4.17
2022-11-16T07:22:09.010Z,4.83
2022-11-16T07:24:36.805Z,6.50
2022-11-16T07:27:06.032Z,6.47
2022-11-16T07:29:33.790Z,4.30
2022-11-16T07:32:01.571Z,4.47
2022-11-16T07:34:29.268Z,5.70
2022-11-16T07:36:57.024Z,3.53
2022-11-16T07:39:24.805Z,3.33
2022-11-16T07:41:53.581Z,4.17
2022-11-16T07:44:22.764Z,4.57
2022-11-16T07:46:50.519Z,3.20
2022-11-16T07:49:20.659Z,2.40
2022-11-16T07:51:48.370Z,3.00
2022-11-16T07:54:16.643Z,4.97
2022-11-16T07:56:44.453Z,1.77
2022-11-16T07:59:12.461Z,2.50
2022-11-16T08:01:41.522Z,1.70
2022-11-16T08:04:09.211Z,3.43
2022-11-16T08:06:37.017Z,3.20
2022-11-16T08:09:04.886Z,2.30
2022-11-16T08:11:32.662Z,3.53
2022-11-16T08:14:00.400Z,2.30
2022-11-16T08:16:28.099Z,3.47
2022-11-16T08:18:57.261Z,5.77
2022-11-16T08:21:24.915Z,1.97
2022-11-16T08:23:57.863Z,7.10
2022-11-16T08:26:26.412Z,2.70
2022-11-16T08:28:56.415Z,3.30
2022-11-16T08:31:26.226Z,2.97
2022-11-16T08:33:54.054Z,4.60
2022-11-16T08:36:23.236Z,5.37
2022-11-16T08:38:52.304Z,12.10
2022-11-16T08:41:21.344Z,4.50
2022-11-16T08:43:50.609Z,5.10
2022-11-16T08:46:18.555Z,4.00
2022-11-16T08:48:47.124Z,3.70
2022-11-16T08:51:19.727Z,9.63
2022-11-16T08:53:51.355Z,5.37
2022-11-16T08:56:19.569Z,4.40
2022-11-16T08:58:49.509Z,1.80
2022-11-16T09:01:22.851Z,4.33
2022-11-16T09:03:50.824Z,5.13
2022-11-16T09:06:19.004Z,1.80
2022-11-16T09:08:47.534Z,2.77
2022-11-16T09:11:19.530Z,4.20
2022-11-16T09:13:48.543Z,3.33
2022-11-16T09:16:17.361Z,3.10
2022-11-16T09:18:47.098Z,2.97
2022-11-16T09:21:18.413Z,4.50
2022-11-16T09:23:46.337Z,4.63
2022-11-16T09:26:14.575Z,7.97
2022-11-16T09:28:43.647Z,3.90
2022-11-16T09:31:11.625Z,8.10
2022-11-16T09:33:39.417Z,6.57
2022-11-16T09:36:09.335Z,5.27
2022-11-16T09:39:14.012Z,3.50
2022-11-16T09:41:48.401Z,5.10
2022-11-16T09:44:40.835Z,4.33
2022-11-16T09:47:16.700Z,4.87
2022-11-16T09:49:50.123Z,5.13
2022-11-16T09:52:26.551Z,3.20
2022-11-16T09:54:55.911Z,5.60
2022-11-16T09:57:28.648Z,4.33
2022-11-16T10:00:00.224Z,2.83
2022-11-16T10:02:32.021Z,6.10
2022-11-16T10:05:04.681Z,5.93
2022-11-16T10:07:37.377Z,3.27
2022-11-16T10:10:06.358Z,2.43
2022-11-16T10:12:43.482Z,1.80
2022-11-16T10:15:34.171Z,3.00
2022-11-16T10:18:20.850Z,1.70
2022-11-16T10:21:07.294Z,2.10
2022-11-16T10:23:49.785Z,2.13
2022-11-16T10:26:28.286Z,6.70
2022-11-16T10:29:17.737Z,2.50
2022-11-16T10:31:57.983Z,5.20
2022-11-16T10:34:28.497Z,7.17
2022-11-16T10:37:00.605Z,3.30
2022-11-16T10:39:28.732Z,2.70
2022-11-16T10:42:06.067Z,2.43
2022-11-16T10:44:39.299Z,3.70
2022-11-16T10:47:18.131Z,1.70
2022-11-16T10:49:54.539Z,2.80
2022-11-16T10:52:23.566Z,3.27
2022-11-16T10:54:51.437Z,3.67
2022-11-16T10:57:19.244Z,6.00
2022-11-16T10:59:48.746Z,4.00
2022-11-16T11:02:34.649Z,3.00
2022-11-16T11:05:05.281Z,2.07
2022-11-16T11:07:34.891Z,3.80
2022-11-16T11:10:02.913Z,3.03
2022-11-16T11:12:47.096Z,5.47
2022-11-16T11:15:26.261Z,3.97
2022-11-16T11:18:17.188Z,3.40
2022-11-16T11:20:48.214Z,2.13
2022-11-16T11:23:18.705Z,3.73
2022-11-16T11:25:55.179Z,2.47
2022-11-16T11:28:26.447Z,2.97
2022-11-16T11:31:04.267Z,6.90
2022-11-16T11:33:36.350Z,1.40
2022-11-16T11:36:08.239Z,2.10
2022-11-16T11:38:55.326Z,2.13
2022-11-16T11:41:23.254Z,3.60
2022-11-16T11:44:03.302Z,2.50
2022-11-16T11:47:11.040Z,3.53
2022-11-16T11:49:33.419Z,3.37
2022-11-16T11:52:10.348Z,3.00
2022-11-16T11:54:45.913Z,2.80
2022-11-16T11:57:20.457Z,1.97
2022-11-16T11:59:49.021Z,2.60
2022-11-16T12:02:34.526Z,5.27
2022-11-16T12:05:15.455Z,5.03
2022-11-16T12:07:57.754Z,2.30
2022-11-16T12:10:35.316Z,3.53
2022-11-16T12:13:20.695Z,2.20
2022-11-16T12:15:59.412Z,6.93
2022-11-16T12:18:51.940Z,6.00
2022-11-16T12:21:28.726Z,2.87
2022-11-16T12:24:11.054Z,3.00
2022-11-16T12:26:48.828Z,2.10
2022-11-16T12:29:26.672Z,4.37
2022-11-16T12:32:09.765Z,2.40
2022-11-16T12:34:53.765Z,6.70
2022-11-16T12:37:30.381Z,4.13
2022-11-16T12:40:16.600Z,3.00
2022-11-16T12:42:53.398Z,3.23
2022-11-16T12:45:42.158Z,3.97
2022-11-16T12:48:41.790Z,3.10
2022-11-16T12:51:19.243Z,4.90
2022-11-16T12:54:07.911Z,2.20
2022-11-16T12:56:48.905Z,2.03
2022-11-16T12:59:48.964Z,3.00
2022-11-16T13:02:37.115Z,4.73
2022-11-16T13:05:12.823Z,5.80
2022-11-16T13:07:45.719Z,2.70
2022-11-16T13:10:20.758Z,2.63
2022-11-16T13:12:55.844Z,2.70
2022-11-16T13:15:37.181Z,4.10
2022-11-16T13:18:07.312Z,2.83
2022-11-16T13:20:45.939Z,1.20
2022-11-16T13:23:20.235Z,1.50
2022-11-16T13:25:53.804Z,1.60
2022-11-16T13:28:33.545Z,1.93
2022-11-16T13:31:05.662Z,1.33
2022-11-16T13:33:46.173Z,7.17
2022-11-16T13:36:45.113Z,4.30
2022-11-16T13:39:21.521Z,3.77
2022-11-16T13:42:05.972Z,3.93
2022-11-16T13:44:34.547Z,3.97
2022-11-16T13:47:05.428Z,1.20
2022-11-16T13:49:40.849Z,10.07
2022-11-16T13:52:23.096Z,3.07
2022-11-16T13:54:55.324Z,5.27
2022-11-16T13:57:28.099Z,1.80
2022-11-16T14:00:10.760Z,3.03
2022-11-16T14:02:40.213Z,2.70
2022-11-16T14:05:17.411Z,9.00
2022-11-16T14:07:49.807Z,1.93
2022-11-16T14:10:51.023Z,12.43
2022-11-16T14:13:42.277Z,3.77
2022-11-16T14:16:33.294Z,1.90
2022-11-16T14:19:03.030Z,1.80
2022-11-16T14:21:44.956Z,3.47
2022-11-16T14:24:22.926Z,3.33
2022-11-16T14:27:00.513Z,2.10
2022-11-16T14:29:50.869Z,7.87
2022-11-16T14:32:22.538Z,3.40
2022-11-16T14:34:53.010Z,1.63
2022-11-16T14:37:33.640Z,3.13
2022-11-16T14:40:07.527Z,5.20
2022-11-16T14:43:09.468Z,3.57
2022-11-16T14:45:38.757Z,6.30
2022-11-16T14:48:14.889Z,6.27
2022-11-16T14:50:44.715Z,4.80
2022-11-16T14:53:18.215Z,4.70
2022-11-16T14:55:46.232Z,9.83
2022-11-16T14:58:19.778Z,3.07
2022-11-16T15:00:56.336Z,4.77
2022-11-16T15:03:26.543Z,4.73
2022-11-16T15:05:59.344Z,4.07
2022-11-16T15:08:33.511Z,9.17
2022-11-16T15:11:01.640Z,4.30
2022-11-16T15:13:29.704Z,9.60
2022-11-16T15:16:15.612Z,3.60
2022-11-16T15:18:57.268Z,2.60
2022-11-16T15:21:25.477Z,3.37
2022-11-16T15:24:23.435Z,5.10
2022-11-16T15:26:41.231Z,11.70
2022-11-16T15:29:16.308Z,8.27
2022-11-16T15:31:45.689Z,5.10
2022-11-16T15:34:14.252Z,8.20
2022-11-16T15:36:42.671Z,8.10
2022-11-16T15:39:15.158Z,6.83
2022-11-16T15:41:43.659Z,5.87
2022-11-16T15:44:16.397Z,4.43
2022-11-16T15:46:48.941Z,6.50
2022-11-16T15:49:28.621Z,10.03
2022-11-16T15:51:57.428Z,4.77
2022-11-16T15:54:26.654Z,4.67
2022-11-16T15:56:57.415Z,6.77
2022-11-16T15:59:29.126Z,9.63
2022-11-16T16:01:58.357Z,10.40
2022-11-16T16:04:27.241Z,10.43
2022-11-16T16:06:56.473Z,7.77
2022-11-16T16:09:27.543Z,4.30
2022-11-16T16:11:57.433Z,8.27
2022-11-16T16:14:28.531Z,5.50
2022-11-16T16:16:59.731Z,13.73
2022-11-16T16:19:34.488Z,13.53
2022-11-16T16:22:02.978Z,5.30
2022-11-16T16:24:41.191Z,8.13
2022-11-16T16:27:18.204Z,12.33
2022-11-16T16:29:46.554Z,9.20
2022-11-16T16:32:23.870Z,8.60
2022-11-16T16:34:51.666Z,9.73
2022-11-16T16:37:19.555Z,10.63
2022-11-16T16:39:47.479Z,19.03
2022-11-16T16:42:16.699Z,12.10
2022-11-16T16:44:45.639Z,11.70
2022-11-16T16:47:13.486Z,12.67
2022-11-16T16:49:42.827Z,8.53
2022-11-16T16:52:13.242Z,11.83
2022-11-16T16:54:41.206Z,13.07
2022-11-16T16:57:14.344Z,10.50
2022-11-16T16:59:42.189Z,13.83
2022-11-16T17:02:11.535Z,10.33
2022-11-16T17:04:48.402Z,12.10
2022-11-16T17:07:16.556Z,7.00
2022-11-16T17:09:44.600Z,18.90
2022-11-16T17:12:12.395Z,15.93
2022-11-16T17:14:40.117Z,14.93
2022-11-16T17:17:07.809Z,17.13
2022-11-16T17:19:35.609Z,15.17
2022-11-16T17:22:04.700Z,13.50
2022-11-16T17:24:32.421Z,14.80
2022-11-16T17:27:00.166Z,14.10
2022-11-16T17:29:27.890Z,18.60
2022-11-16T17:31:55.627Z,18.00
2022-11-16T17:34:23.509Z,15.60
2022-11-16T17:36:51.364Z,16.10
2022-11-16T17:39:20.484Z,14.33
2022-11-16T17:41:48.170Z,10.07
2022-11-16T17:44:21.573Z,13.97
2022-11-16T17:46:49.990Z,7.60
2022-11-16T17:49:17.720Z,13.27
2022-11-16T17:51:45.397Z,11.30
2022-11-16T17:54:13.190Z,11.53
2022-11-16T17:56:42.261Z,8.77
2022-11-16T17:59:09.982Z,9.47
2022-11-16T18:01:37.782Z,8.27
2022-11-16T18:04:05.543Z,6.17
2022-11-16T18:06:33.283Z,15.90
2022-11-16T18:09:01.256Z,12.83
2022-11-16T18:11:29.164Z,8.60
2022-11-16T18:14:00.504Z,9.57
2022-11-16T18:16:31.521Z,12.37
2022-11-16T18:19:01.113Z,13.23
2022-11-16T18:21:29.434Z,10.13
2022-11-16T18:23:57.503Z,9.57
2022-11-16T18:26:25.292Z,11.00
2022-11-16T18:28:54.272Z,12.80
2022-11-16T18:31:25.003Z,9.70
2022-11-16T18:33:53.171Z,8.73
2022-11-16T18:36:21.965Z,10.10
2022-11-16T18:38:49.990Z,12.17
2022-11-16T18:41:21.016Z,11.23
2022-11-16T18:43:51.461Z,8.33
2022-11-16T18:46:20.105Z,10.75
2022-11-16T18:48:49.770Z,8.70
2022-11-16T18:51:18.790Z,14.27
2022-11-16T18:53:47.060Z,9.73
2022-11-16T18:56:14.787Z,12.70
2022-11-16T18:58:50.340Z,8.23
2022-11-16T19:01:21.180Z,10.13
2022-11-16T19:03:50.436Z,11.43
2022-11-16T19:06:18.410Z,9.00
2022-11-16T19:08:53.786Z,13.57
2022-11-16T19:11:23.794Z,11.33
2022-11-16T19:13:55.007Z,10.90
2022-11-16T19:16:23.875Z,10.53
2022-11-16T19:18:53.422Z,16.30
2022-11-16T19:21:22.484Z,12.30
2022-11-16T19:23:51.545Z,19.02
2022-11-16T19:26:20.633Z,11.07
2022-11-16T19:28:50.115Z,8.40
2022-11-16T19:31:19.679Z,15.10
2022-11-16T19:33:47.776Z,10.43
2022-11-16T19:36:18.918Z,13.93
2022-11-16T19:38:47.933Z,7.18
2022-11-16T19:41:17.101Z,10.00
2022-11-16T19:43:44.998Z,8.30
2022-11-16T19:46:16.318Z,10.23
2022-11-16T19:48:44.833Z,11.10
2022-11-16T19:51:14.243Z,9.32
2022-11-16T19:53:43.761Z,11.85
2022-11-16T19:56:13.919Z,13.90
2022-11-16T19:58:41.594Z,8.45
2022-11-16T20:01:11.981Z,11.52
2022-11-16T20:03:40.439Z,10.88
2022-11-16T20:06:10.064Z,8.95
2022-11-16T20:08:38.282Z,20.80
2022-11-16T20:11:18.344Z,10.95
2022-11-16T20:13:46.069Z,17.00
2022-11-16T20:16:14.614Z,11.50
2022-11-16T20:18:43.972Z,14.18
2022-11-16T20:21:14.833Z,11.57
2022-11-16T20:23:44.606Z,7.80
2022-11-16T20:26:13.899Z,10.68
2022-11-16T20:28:44.327Z,10.07
2022-11-16T20:31:16.851Z,9.02
2022-11-16T20:33:51.120Z,11.68
2022-11-16T20:36:19.540Z,14.20
2022-11-16T20:38:47.574Z,18.58
2022-11-16T20:41:17.085Z,9.52
2022-11-16T20:43:47.314Z,12.95
2022-11-16T20:46:17.376Z,11.45
2022-11-16T20:48:45.945Z,17.88
2022-11-16T20:51:16.761Z,13.90
2022-11-16T20:53:44.638Z,12.98
2022-11-16T20:56:13.628Z,13.55
2022-11-16T20:58:41.838Z,12.43
2022-11-16T21:01:13.823Z,15.00
2022-11-16T21:03:42.482Z,13.77
2022-11-16T21:06:10.204Z,11.32
2022-11-16T21:08:39.408Z,12.57
2022-11-16T21:11:12.108Z,12.15
2022-11-16T21:13:57.906Z,11.00
2022-11-16T21:16:27.900Z,11.20
2022-11-16T21:18:55.623Z,12.65
2022-11-16T21:21:23.654Z,10.60
2022-11-16T21:23:53.175Z,11.77
2022-11-16T21:26:22.339Z,7.32
2022-11-16T21:28:50.488Z,10.95
2022-11-16T21:31:19.965Z,11.07
2022-11-16T21:33:49.557Z,13.65
2022-11-16T21:36:21.902Z,13.98
2022-11-16T21:38:49.880Z,8.35
2022-11-16T21:41:19.402Z,12.02
2022-11-16T21:43:48.089Z,9.35
2022-11-16T21:46:18.919Z,12.50
2022-11-16T21:48:48.235Z,12.93
2022-11-16T21:51:19.829Z,12.05
2022-11-16T21:53:48.110Z,11.85
2022-11-16T21:56:18.063Z,10.55
2022-11-16T21:58:46.529Z,14.27
2022-11-16T22:01:16.030Z,16.42
2022-11-16T22:03:44.677Z,10.70
2022-11-16T22:06:29.245Z,12.48
2022-11-16T22:08:58.386Z,15.27
2022-11-16T22:11:26.380Z,13.13
2022-11-16T22:13:54.197Z,12.65
2022-11-16T22:16:23.249Z,14.82
2022-11-16T22:18:51.308Z,11.65
2022-11-16T22:21:19.154Z,15.90
2022-11-16T22:23:47.001Z,12.43
2022-11-16T22:26:16.352Z,9.93
2022-11-16T22:28:44.180Z,9.60
2022-11-16T22:31:13.776Z,19.33
2022-11-16T22:33:42.238Z,11.80
2022-11-16T22:36:11.201Z,11.45
2022-11-16T22:38:38.905Z,14.23
2022-11-16T22:41:06.896Z,9.55
2022-11-16T22:43:37.427Z,9.13
2022-11-16T22:46:06.588Z,9.98
2022-11-16T22:48:35.798Z,11.15
2022-11-16T22:51:05.833Z,9.02
2022-11-16T22:53:34.474Z,10.68
2022-11-16T22:56:07.221Z,7.95
2022-11-16T22:58:36.517Z,10.38
2022-11-16T23:01:04.338Z,9.77
2022-11-16T23:03:32.315Z,13.20
2022-11-16T23:06:00.618Z,9.98
2022-11-16T23:08:28.417Z,11.25
2022-11-16T23:11:18.658Z,12.93
2022-11-16T23:14:05.791Z,11.00
2022-11-16T23:16:33.488Z,10.82
2022-11-16T23:19:01.237Z,9.85
2022-11-16T23:21:46.752Z,9.68
2022-11-16T23:24:33.505Z,10.27
2022-11-16T23:27:20.890Z,13.07
2022-11-16T23:29:50.367Z,13.38
2022-11-16T23:32:18.087Z,11.40
2022-11-16T23:34:45.799Z,12.70
2022-11-16T23:37:13.435Z,9.70
2022-11-16T23:39:41.094Z,14.18
2022-11-16T23:42:26.348Z,11.98
2022-11-16T23:44:55.429Z,9.88
2022-11-16T23:47:23.192Z,10.07
2022-11-16T23:49:51.168Z,9.40
2022-11-16T23:52:18.808Z,13.80
2022-11-16T23:54:46.536Z,13.27
2022-11-16T23:57:14.255Z,10.55
2022-11-16T23:59:42.189Z,13.13
